createdAt,value
2024-01-17T00:01:50.249Z,35.00
2024-01-17T00:03:52.139Z,44.70
2024-01-17T00:05:53.957Z,35.00
2024-01-17T00:07:55.882Z,37.70
2024-01-17T00:09:57.698Z,40.40
2024-01-17T00:12:03.393Z,38.80
2024-01-17T00:14:05.258Z,35.30
2024-01-17T00:16:07.052Z,42.90
2024-01-17T00:18:08.938Z,37.70
2024-01-17T00:20:11.237Z,41.30
2024-01-17T00:22:13.554Z,32.20
2024-01-17T00:24:15.915Z,38.00
2024-01-17T00:26:17.777Z,40.20
2024-01-17T00:28:19.541Z,45.10
2024-01-17T00:30:21.325Z,40.60
2024-01-17T00:32:23.239Z,39.10
2024-01-17T00:34:25.013Z,37.80
2024-01-17T00:36:27.127Z,45.70
2024-01-17T00:38:29.119Z,37.80
2024-01-17T00:40:32.363Z,42.90
2024-01-17T00:42:34.136Z,38.70
2024-01-17T00:44:39.724Z,38.70
2024-01-17T00:46:42.031Z,34.40
2024-01-17T00:48:43.996Z,37.10
2024-01-17T00:50:46.337Z,34.70
2024-01-17T00:52:48.190Z,34.90
2024-01-17T00:54:49.884Z,32.00
2024-01-17T00:56:51.490Z,33.50
2024-01-17T00:58:53.005Z,40.80
2024-01-17T01:00:55.106Z,39.60
2024-01-17T01:02:56.850Z,51.00
2024-01-17T01:04:58.549Z,50.30
2024-01-17T01:07:00.117Z,54.50
2024-01-17T01:09:01.932Z,54.70
2024-01-17T01:11:04.050Z,55.20
2024-01-17T01:13:05.764Z,43.80
2024-01-17T01:15:08.029Z,45.60
2024-01-17T01:17:09.805Z,43.40
2024-01-17T01:19:11.695Z,41.60
2024-01-17T01:21:13.618Z,42.00
2024-01-17T01:23:15.170Z,46.00
2024-01-17T01:25:16.829Z,45.10
2024-01-17T01:27:18.447Z,35.40
2024-01-17T01:29:20.136Z,45.10
2024-01-17T01:31:21.781Z,36.50
2024-01-17T01:33:23.983Z,40.80
2024-01-17T01:35:25.753Z,46.50
2024-01-17T01:37:27.458Z,39.40
2024-01-17T01:39:29.831Z,42.70
2024-01-17T01:41:31.416Z,46.60
2024-01-17T01:43:32.927Z,45.00
2024-01-17T01:45:34.609Z,48.90
2024-01-17T01:47:37.126Z,35.20
2024-01-17T01:49:38.963Z,39.70
2024-01-17T01:51:45.420Z,52.70
2024-01-17T01:53:50.758Z,60.40
2024-01-17T01:55:54.435Z,56.10
2024-01-17T01:57:55.995Z,58.00
2024-01-17T01:59:58.759Z,60.40
2024-01-17T02:02:00.802Z,47.40
2024-01-17T02:04:03.633Z,48.50
2024-01-17T02:06:05.471Z,51.10
2024-01-17T02:08:07.703Z,50.70
2024-01-17T02:10:09.904Z,59.30
2024-01-17T02:12:12.286Z,51.70
2024-01-17T02:14:14.777Z,47.20
2024-01-17T02:16:16.693Z,52.80
2024-01-17T02:18:18.433Z,52.30
2024-01-17T02:20:20.140Z,56.60
2024-01-17T02:22:21.829Z,45.50
2024-01-17T02:24:26.173Z,48.10
2024-01-17T02:26:27.713Z,47.40
2024-01-17T02:28:31.533Z,43.70
2024-01-17T02:30:33.266Z,51.30
2024-01-17T02:32:38.389Z,37.80
2024-01-17T02:34:40.457Z,43.00
2024-01-17T02:36:42.095Z,41.70
2024-01-17T02:38:43.685Z,39.30
2024-01-17T02:40:45.786Z,48.90
2024-01-17T02:42:48.647Z,54.30
2024-01-17T02:44:52.256Z,64.90
2024-01-17T02:46:53.871Z,69.70
2024-01-17T02:48:55.762Z,62.00
2024-01-17T02:50:57.515Z,62.80
2024-01-17T02:52:59.151Z,57.60
2024-01-17T02:55:00.797Z,57.10
2024-01-17T02:57:02.581Z,57.00
2024-01-17T02:59:04.182Z,55.90
2024-01-17T03:01:05.757Z,49.40
2024-01-17T03:03:07.492Z,57.60
2024-01-17T03:05:09.932Z,50.80
2024-01-17T03:07:11.685Z,57.00
2024-01-17T03:09:13.328Z,50.70
2024-01-17T03:11:14.911Z,53.00
2024-01-17T03:13:16.661Z,54.30
2024-01-17T03:15:18.263Z,51.30
2024-01-17T03:17:19.881Z,55.50
2024-01-17T03:19:21.693Z,46.40
2024-01-17T03:21:23.681Z,47.70
2024-01-17T03:23:25.486Z,44.30
2024-01-17T03:25:27.433Z,45.10
2024-01-17T03:27:29.296Z,34.80
2024-01-17T03:29:31.272Z,43.80
2024-01-17T03:31:32.882Z,37.80
2024-01-17T03:33:34.952Z,40.20
2024-01-17T03:35:36.856Z,36.10
2024-01-17T03:37:38.473Z,37.40
2024-01-17T03:39:45.696Z,50.20
2024-01-17T03:41:47.349Z,39.20
2024-01-17T03:43:49.432Z,50.00
2024-01-17T03:45:52.702Z,68.80
2024-01-17T03:47:54.454Z,62.20
2024-01-17T03:49:56.291Z,57.30
2024-01-17T03:51:58.114Z,58.20
2024-01-17T03:53:59.940Z,62.90
2024-01-17T03:56:01.746Z,63.60
2024-01-17T03:58:03.449Z,53.50
2024-01-17T04:00:06.013Z,54.10
2024-01-17T04:02:07.814Z,56.40
2024-01-17T04:04:09.667Z,54.80
2024-01-17T04:06:11.305Z,55.70
2024-01-17T04:08:13.075Z,54.00
2024-01-17T04:10:14.686Z,56.30
2024-01-17T04:12:16.404Z,50.00
2024-01-17T04:14:17.966Z,49.30
2024-01-17T04:16:19.686Z,57.10
2024-01-17T04:18:21.419Z,50.60
2024-01-17T04:20:23.197Z,44.20
2024-01-17T04:22:24.746Z,48.10
2024-01-17T04:24:26.552Z,53.30
2024-01-17T04:26:28.383Z,55.10
2024-01-17T04:28:30.108Z,42.70
2024-01-17T04:30:31.614Z,42.20
2024-01-17T04:32:36.820Z,36.20
2024-01-17T04:34:41.674Z,54.00
2024-01-17T04:36:43.296Z,43.10
2024-01-17T04:38:45.543Z,32.90
2024-01-17T04:40:47.127Z,50.90
2024-01-17T04:42:50.332Z,68.80
2024-01-17T04:44:52.052Z,70.50
2024-01-17T04:46:53.672Z,61.20
2024-01-17T04:48:55.463Z,53.80
2024-01-17T04:51:00.318Z,64.10
2024-01-17T04:53:01.992Z,63.60
2024-01-17T04:55:03.957Z,61.10
2024-01-17T04:57:06.637Z,56.60
2024-01-17T04:59:08.415Z,62.90
2024-01-17T05:01:10.528Z,56.70
2024-01-17T05:03:12.523Z,58.20
2024-01-17T05:05:14.266Z,53.80
2024-01-17T05:07:16.032Z,58.30
2024-01-17T05:09:19.599Z,56.00
2024-01-17T05:11:23.092Z,56.00
2024-01-17T05:13:24.782Z,51.90
2024-01-17T05:15:26.473Z,47.00
2024-01-17T05:17:28.285Z,51.30
2024-01-17T05:19:30.423Z,54.10
2024-01-17T05:21:32.756Z,51.40
2024-01-17T05:23:34.314Z,55.10
2024-01-17T05:25:35.953Z,50.90
2024-01-17T05:27:37.482Z,47.40
2024-01-17T05:29:44.836Z,43.00
2024-01-17T05:31:46.748Z,45.60
2024-01-17T05:33:48.611Z,44.60
2024-01-17T05:35:50.392Z,44.90
2024-01-17T05:37:52.608Z,41.00
2024-01-17T05:39:54.176Z,39.20
2024-01-17T05:41:55.914Z,51.00
2024-01-17T05:43:58.108Z,60.40
2024-01-17T05:46:00.196Z,54.70
2024-01-17T05:48:02.674Z,58.50
2024-01-17T05:50:10.159Z,59.10
2024-01-17T05:52:11.704Z,53.80
2024-01-17T05:54:13.422Z,58.90
2024-01-17T05:56:15.257Z,58.40
2024-01-17T05:58:16.911Z,55.40
2024-01-17T06:00:20.147Z,49.80
2024-01-17T06:02:21.792Z,52.90
2024-01-17T06:04:23.511Z,54.40
2024-01-17T06:06:25.257Z,52.10
2024-01-17T06:08:26.972Z,50.80
2024-01-17T06:10:29.894Z,45.40
2024-01-17T06:12:32.362Z,49.60
2024-01-17T06:14:33.979Z,48.60
2024-01-17T06:16:35.612Z,54.40
2024-01-17T06:18:37.358Z,47.40
2024-01-17T06:20:39.144Z,49.10
2024-01-17T06:22:41.496Z,42.90
2024-01-17T06:24:43.118Z,49.80
2024-01-17T06:26:45.023Z,50.20
2024-01-17T06:28:46.613Z,28.60
2024-01-17T06:30:48.213Z,31.60
2024-01-17T06:32:49.947Z,49.00
2024-01-17T06:34:52.817Z,43.60
2024-01-17T06:36:54.444Z,34.50
2024-01-17T06:38:56.768Z,40.00
2024-01-17T06:40:58.471Z,45.90
2024-01-17T06:43:00.041Z,53.90
2024-01-17T06:45:01.753Z,58.30
2024-01-17T06:47:04.999Z,55.60
2024-01-17T06:49:06.825Z,60.50
2024-01-17T06:51:08.631Z,55.30
2024-01-17T06:53:10.235Z,57.30
2024-01-17T06:55:11.808Z,59.10
2024-01-17T06:57:13.570Z,63.70
2024-01-17T06:59:15.367Z,59.20
2024-01-17T07:01:16.968Z,50.90
2024-01-17T07:03:18.598Z,51.50
2024-01-17T07:05:20.182Z,54.30
2024-01-17T07:07:21.700Z,54.50
2024-01-17T07:09:23.654Z,44.00
2024-01-17T07:11:25.309Z,50.10
2024-01-17T07:13:27.376Z,41.70
2024-01-17T07:15:29.255Z,44.30
2024-01-17T07:17:30.998Z,40.30
2024-01-17T07:19:36.524Z,45.80
2024-01-17T07:21:43.659Z,42.30
2024-01-17T07:23:45.761Z,45.60
2024-01-17T07:25:47.552Z,38.70
2024-01-17T07:27:49.243Z,40.90
2024-01-17T07:29:50.953Z,39.20
2024-01-17T07:31:52.579Z,41.70
2024-01-17T07:33:54.538Z,36.40
2024-01-17T07:35:56.247Z,43.10
2024-01-17T07:37:59.802Z,42.70
2024-01-17T07:42:04.630Z,33.50
2024-01-17T07:44:08.025Z,31.10
2024-01-17T07:46:09.712Z,30.00
2024-01-17T07:48:12.276Z,34.20
2024-01-17T07:50:14.018Z,41.30
2024-01-17T07:52:15.909Z,32.70
2024-01-17T07:54:18.969Z,32.80
2024-01-17T07:56:20.622Z,41.30
2024-01-17T07:58:22.253Z,36.30
2024-01-17T08:00:25.172Z,38.70
2024-01-17T08:02:26.811Z,46.80
2024-01-17T08:04:28.495Z,41.10
2024-01-17T08:06:30.511Z,47.30
2024-01-17T08:08:32.317Z,39.50
2024-01-17T08:10:34.108Z,43.90
2024-01-17T08:12:35.918Z,46.60
2024-01-17T08:14:37.641Z,43.40
2024-01-17T08:16:39.288Z,46.50
2024-01-17T08:18:41.496Z,40.10
2024-01-17T08:20:44.609Z,38.60
2024-01-17T08:22:46.404Z,39.50
2024-01-17T08:24:47.971Z,41.20
2024-01-17T08:26:49.622Z,37.30
2024-01-17T08:28:51.183Z,31.40
2024-01-17T08:30:52.902Z,34.40
2024-01-17T08:32:55.187Z,31.40
2024-01-17T08:34:57.312Z,39.00
2024-01-17T08:36:59.817Z,37.90
2024-01-17T08:39:01.925Z,35.10
2024-01-17T08:41:03.875Z,37.10
2024-01-17T08:43:06.146Z,33.40
2024-01-17T08:45:08.451Z,33.70
2024-01-17T08:47:10.181Z,29.40
2024-01-17T08:49:12.125Z,30.80
2024-01-17T08:51:13.844Z,30.00
2024-01-17T08:53:16.916Z,32.20
2024-01-17T08:57:20.322Z,31.00
2024-01-17T08:59:21.928Z,30.10
2024-01-17T09:01:26.003Z,31.50
2024-01-17T09:03:30.505Z,28.70
2024-01-17T09:05:32.856Z,28.50
2024-01-17T09:07:34.702Z,31.00
2024-01-17T09:09:36.730Z,29.40
2024-01-17T09:11:39.723Z,24.50
2024-01-17T09:15:42.793Z,30.00
2024-01-17T09:17:44.682Z,35.60
2024-01-17T09:19:48.019Z,25.60
2024-01-17T09:21:55.360Z,26.80
2024-01-17T09:23:57.452Z,29.30
2024-01-17T09:26:00.847Z,27.20
2024-01-17T09:28:03.756Z,23.80
2024-01-17T09:30:06.305Z,29.30
2024-01-17T09:32:07.915Z,27.00
2024-01-17T09:34:09.601Z,29.60
2024-01-17T09:36:13.487Z,31.80
2024-01-17T09:38:15.665Z,30.00
2024-01-17T09:40:17.270Z,28.90
2024-01-17T09:42:22.070Z,30.90
2024-01-17T09:44:23.761Z,30.70
2024-01-17T09:46:27.153Z,27.90
2024-01-17T09:48:29.890Z,27.50
2024-01-17T09:52:34.764Z,29.40
2024-01-17T09:56:47.344Z,26.50
2024-01-17T09:58:52.109Z,29.30
2024-01-17T10:00:56.173Z,31.80
2024-01-17T10:02:58.406Z,30.90
2024-01-17T10:05:02.005Z,30.60
2024-01-17T10:07:03.775Z,27.90
2024-01-17T10:09:05.931Z,28.80
2024-01-17T10:11:07.830Z,28.20
2024-01-17T10:13:09.599Z,28.00
2024-01-17T10:15:17.990Z,31.20
2024-01-17T10:17:20.692Z,28.20
2024-01-17T10:19:26.400Z,29.00
2024-01-17T10:21:28.418Z,33.30
2024-01-17T10:23:30.448Z,31.90
2024-01-17T10:25:42.290Z,31.70
2024-01-17T10:27:43.931Z,31.60
2024-01-17T10:29:45.549Z,31.70
2024-01-17T10:31:47.392Z,33.90
2024-01-17T10:33:52.119Z,31.80
2024-01-17T10:35:54.018Z,32.00
2024-01-17T10:37:56.154Z,31.80
2024-01-17T10:40:10.918Z,34.60
2024-01-17T10:42:21.835Z,30.30
2024-01-17T10:44:24.076Z,33.40
2024-01-17T10:46:26.807Z,29.40
2024-01-17T10:48:28.691Z,31.60
2024-01-17T10:50:31.220Z,27.90
2024-01-17T10:52:37.170Z,24.90
2024-01-17T10:54:51.258Z,27.60
2024-01-17T10:56:55.392Z,25.30
2024-01-17T10:59:00.131Z,32.40
2024-01-17T11:01:07.134Z,34.70
2024-01-17T11:03:10.784Z,30.60
2024-01-17T11:05:16.441Z,28.40
2024-01-17T11:07:19.244Z,31.30
2024-01-17T11:09:26.670Z,33.30
2024-01-17T11:11:30.032Z,31.70
2024-01-17T11:13:32.716Z,33.20
2024-01-17T11:15:37.499Z,31.40
2024-01-17T11:17:42.038Z,31.90
2024-01-17T11:19:45.730Z,27.70
2024-01-17T11:21:48.492Z,33.30
2024-01-17T11:24:02.170Z,32.00
2024-01-17T11:26:30.047Z,28.50
2024-01-17T11:28:48.007Z,30.00
2024-01-17T11:31:20.651Z,27.30
2024-01-17T11:33:23.665Z,30.60
2024-01-17T11:37:43.504Z,32.20
2024-01-17T11:39:45.873Z,28.20
2024-01-17T11:41:50.240Z,33.40
2024-01-17T11:43:55.681Z,28.10
2024-01-17T11:45:58.677Z,30.90
2024-01-17T11:48:13.803Z,27.80
2024-01-17T11:50:15.709Z,28.30
2024-01-17T11:52:29.421Z,28.40
2024-01-17T11:54:30.979Z,28.40
2024-01-17T11:56:33.327Z,25.10
2024-01-17T11:58:46.288Z,29.50
2024-01-17T12:00:51.930Z,32.90
2024-01-17T12:02:53.616Z,31.50
2024-01-17T12:04:58.456Z,26.90
2024-01-17T12:07:00.386Z,33.30
2024-01-17T12:09:02.101Z,30.90
2024-01-17T12:11:04.346Z,27.90
2024-01-17T12:13:06.072Z,26.00
2024-01-17T12:15:08.763Z,28.20
2024-01-17T12:17:10.592Z,26.80
2024-01-17T12:19:14.090Z,30.40
2024-01-17T12:21:16.316Z,46.40
2024-01-17T12:23:23.825Z,42.70
2024-01-17T12:25:25.516Z,43.40
2024-01-17T12:27:33.527Z,44.80
2024-01-17T12:29:38.813Z,44.30
2024-01-17T12:31:40.578Z,42.90
2024-01-17T12:33:42.166Z,44.00
2024-01-17T12:35:43.902Z,41.30
2024-01-17T12:37:45.565Z,42.30
2024-01-17T12:39:47.076Z,42.80
2024-01-17T12:41:55.889Z,38.40
2024-01-17T12:43:57.665Z,41.30
2024-01-17T12:45:59.924Z,35.30
2024-01-17T12:48:03.252Z,38.50
2024-01-17T12:50:05.779Z,36.70
2024-01-17T12:52:07.646Z,36.90
2024-01-17T12:54:09.508Z,42.30
2024-01-17T12:56:13.166Z,35.00
2024-01-17T12:58:15.880Z,35.40
2024-01-17T13:00:21.867Z,37.20
2024-01-17T13:02:24.210Z,35.70
2024-01-17T13:04:25.997Z,21.50
2024-01-17T13:06:27.875Z,35.60
2024-01-17T13:08:30.675Z,42.40
2024-01-17T13:10:34.513Z,38.60
2024-01-17T13:12:36.790Z,35.40
2024-01-17T13:14:41.126Z,36.00
2024-01-17T13:16:42.963Z,33.40
2024-01-17T13:18:44.813Z,34.40
2024-01-17T13:20:46.493Z,33.00
2024-01-17T13:22:50.727Z,35.60
2024-01-17T13:24:55.332Z,41.00
2024-01-17T13:26:58.390Z,35.50
2024-01-17T13:29:01.148Z,31.20
2024-01-17T13:31:02.736Z,36.30
2024-01-17T13:33:08.574Z,32.90
2024-01-17T13:35:10.311Z,39.40
2024-01-17T13:37:12.434Z,30.20
2024-01-17T13:39:14.103Z,31.70
2024-01-17T13:41:16.867Z,34.10
2024-01-17T13:43:18.550Z,33.50
2024-01-17T13:45:21.699Z,29.40
2024-01-17T13:47:23.837Z,27.70
2024-01-17T13:49:27.096Z,24.00
2024-01-17T13:51:32.304Z,31.10
2024-01-17T13:53:34.365Z,26.30
2024-01-17T13:55:35.966Z,29.10
2024-01-17T13:57:38.552Z,28.10
2024-01-17T13:59:43.334Z,29.40
2024-01-17T14:01:45.166Z,25.60
2024-01-17T14:03:48.277Z,29.20
2024-01-17T14:05:50.597Z,22.10
2024-01-17T14:07:52.513Z,22.80
2024-01-17T14:09:54.270Z,28.00
2024-01-17T14:11:55.882Z,26.40
2024-01-17T14:13:57.515Z,26.90
2024-01-17T14:15:59.911Z,29.00
2024-01-17T14:18:02.098Z,27.60
2024-01-17T14:20:06.793Z,27.50
2024-01-17T14:22:09.367Z,18.00
2024-01-17T14:24:11.231Z,27.50
2024-01-17T14:26:14.154Z,26.90
2024-01-17T14:28:15.826Z,26.00
2024-01-17T14:30:17.750Z,26.50
2024-01-17T14:32:20.332Z,25.60
2024-01-17T14:34:23.568Z,26.60
2024-01-17T14:38:27.678Z,24.00
2024-01-17T14:40:29.296Z,28.40
2024-01-17T14:42:31.354Z,15.90
2024-01-17T14:44:33.741Z,22.30
2024-01-17T14:46:35.405Z,27.10
2024-01-17T14:48:37.234Z,14.50
2024-01-17T14:50:38.946Z,19.50
2024-01-17T14:52:41.364Z,24.40
2024-01-17T14:54:43.733Z,23.80
2024-01-17T14:56:45.507Z,22.30
2024-01-17T14:58:47.178Z,20.40
2024-01-17T15:00:49.034Z,18.60
2024-01-17T15:02:50.879Z,22.00
2024-01-17T15:04:52.513Z,17.20
2024-01-17T15:06:54.158Z,19.30
2024-01-17T15:08:55.979Z,16.30
2024-01-17T15:10:57.594Z,19.00
2024-01-17T15:12:59.257Z,20.60
2024-01-17T15:15:00.830Z,17.20
2024-01-17T15:17:02.625Z,9.40
2024-01-17T15:19:06.469Z,16.60
2024-01-17T15:21:13.872Z,18.50
2024-01-17T15:23:15.527Z,16.00
2024-01-17T15:25:17.773Z,16.60
2024-01-17T15:27:19.419Z,16.50
2024-01-17T15:29:21.174Z,16.50
2024-01-17T15:31:23.077Z,13.50
2024-01-17T15:33:26.292Z,12.10
2024-01-17T15:37:29.821Z,12.20
2024-01-17T15:39:33.312Z,11.50
2024-01-17T15:41:36.237Z,15.40
2024-01-17T15:43:38.857Z,15.30
2024-01-17T15:45:40.984Z,16.10
2024-01-17T15:47:42.817Z,14.00
2024-01-17T15:49:44.688Z,15.30
2024-01-17T15:51:46.602Z,15.00
2024-01-17T15:53:48.191Z,13.40
2024-01-17T15:55:49.899Z,14.80
2024-01-17T15:57:51.699Z,15.10
2024-01-17T15:59:53.344Z,14.20
2024-01-17T16:01:54.991Z,15.60
2024-01-17T16:03:56.546Z,15.80
2024-01-17T16:05:58.445Z,17.50
2024-01-17T16:08:01.515Z,15.70
2024-01-17T16:10:05.636Z,17.20
2024-01-17T16:12:07.595Z,13.90
2024-01-17T16:14:09.182Z,14.50
2024-01-17T16:16:15.063Z,16.50
2024-01-17T16:18:16.866Z,13.80
2024-01-17T16:20:22.949Z,17.00
2024-01-17T16:22:26.222Z,15.10
2024-01-17T16:24:28.059Z,16.10
2024-01-17T16:26:29.739Z,11.90
2024-01-17T16:28:31.286Z,14.90
2024-01-17T16:30:32.991Z,18.10
2024-01-17T16:32:38.778Z,16.10
2024-01-17T16:34:41.125Z,17.80
2024-01-17T16:36:42.743Z,16.70
2024-01-17T16:38:46.190Z,17.60
2024-01-17T16:40:48.058Z,16.70
2024-01-17T16:42:49.948Z,17.00
2024-01-17T16:44:51.695Z,14.60
2024-01-17T16:46:54.584Z,15.10
2024-01-17T16:48:56.287Z,12.30
2024-01-17T16:50:57.902Z,17.80
2024-01-17T16:52:59.746Z,19.40
2024-01-17T16:55:01.634Z,19.50
2024-01-17T16:57:04.767Z,20.10
2024-01-17T16:59:06.631Z,13.20
2024-01-17T17:01:09.111Z,18.40
2024-01-17T17:03:10.883Z,19.40
2024-01-17T17:05:12.617Z,20.40
2024-01-17T17:07:14.266Z,18.00
2024-01-17T17:09:17.188Z,20.40
2024-01-17T17:11:19.061Z,18.60
2024-01-17T17:13:20.743Z,19.20
2024-01-17T17:15:22.511Z,18.40
2024-01-17T17:17:24.530Z,20.10
2024-01-17T17:19:26.154Z,18.10
2024-01-17T17:21:27.879Z,21.80
2024-01-17T17:23:29.518Z,20.10
2024-01-17T17:25:31.252Z,19.90
2024-01-17T17:27:32.857Z,20.20
2024-01-17T17:29:34.472Z,20.60
2024-01-17T17:31:36.058Z,22.20
2024-01-17T17:33:37.814Z,21.60
2024-01-17T17:35:39.842Z,21.50
2024-01-17T17:37:41.622Z,20.40
2024-01-17T17:39:43.300Z,22.80
2024-01-17T17:41:44.899Z,23.20
2024-01-17T17:43:46.977Z,18.60
2024-01-17T17:45:48.614Z,22.10
2024-01-17T17:47:51.407Z,18.90
2024-01-17T17:49:53.748Z,22.00
2024-01-17T17:51:55.273Z,25.00
2024-01-17T17:53:57.403Z,21.10
2024-01-17T17:56:00.235Z,24.70
2024-01-17T17:58:01.740Z,22.70
2024-01-17T18:00:05.463Z,24.70
2024-01-17T18:02:07.125Z,22.10
2024-01-17T18:04:08.921Z,27.90
2024-01-17T18:06:10.804Z,27.20
2024-01-17T18:08:12.493Z,23.40
2024-01-17T18:10:14.807Z,29.20
2024-01-17T18:12:17.491Z,28.20
2024-01-17T18:14:19.250Z,29.30
2024-01-17T18:16:24.984Z,14.60
2024-01-17T18:18:27.225Z,31.40
2024-01-17T18:20:28.825Z,25.80
2024-01-17T18:22:30.454Z,23.40
2024-01-17T18:24:32.172Z,24.70
2024-01-17T18:26:33.973Z,24.10
2024-01-17T18:28:36.130Z,25.30
2024-01-17T18:30:38.094Z,28.50
2024-01-17T18:32:39.848Z,26.10
2024-01-17T18:34:41.501Z,28.20
2024-01-17T18:36:44.043Z,31.20
2024-01-17T18:38:45.734Z,29.40
2024-01-17T18:40:47.947Z,28.50
2024-01-17T18:42:50.253Z,32.00
2024-01-17T18:44:51.788Z,33.10
2024-01-17T18:46:53.392Z,31.00
2024-01-17T18:48:55.117Z,26.50
2024-01-17T18:50:57.009Z,26.10
2024-01-17T18:52:58.729Z,34.80
2024-01-17T18:55:00.376Z,26.90
2024-01-17T18:57:02.480Z,23.30
2024-01-17T18:59:05.101Z,25.30
2024-01-17T19:01:06.829Z,29.70
2024-01-17T19:03:10.498Z,24.00
2024-01-17T19:05:12.365Z,22.60
2024-01-17T19:07:17.017Z,25.10
2024-01-17T19:09:20.318Z,25.90
2024-01-17T19:13:25.185Z,25.00
2024-01-17T19:15:30.051Z,25.60
2024-01-17T19:17:31.989Z,26.30
2024-01-17T19:19:33.576Z,28.10
2024-01-17T19:21:35.189Z,27.90
2024-01-17T19:23:37.855Z,28.30
2024-01-17T19:25:39.509Z,29.00
2024-01-17T19:27:41.337Z,29.00
2024-01-17T19:29:42.968Z,27.60
2024-01-17T19:31:45.974Z,29.50
2024-01-17T19:33:47.780Z,28.10
2024-01-17T19:35:49.547Z,25.50
2024-01-17T19:37:51.293Z,25.80
2024-01-17T19:39:52.914Z,27.00
2024-01-17T19:41:54.621Z,30.80
2024-01-17T19:43:56.206Z,33.50
2024-01-17T19:45:57.874Z,30.40
2024-01-17T19:47:59.498Z,24.10
2024-01-17T19:50:02.335Z,27.00
2024-01-17T19:52:04.084Z,21.60
2024-01-17T19:54:05.742Z,24.50
2024-01-17T19:56:07.922Z,18.50
2024-01-17T19:58:10.087Z,23.60
2024-01-17T20:00:14.365Z,29.00
2024-01-17T20:02:15.926Z,26.00
2024-01-17T20:04:19.310Z,21.20
2024-01-17T20:06:22.964Z,18.80
2024-01-17T20:08:24.711Z,16.60
2024-01-17T20:10:26.952Z,27.00
2024-01-17T20:12:29.149Z,21.20
2024-01-17T20:14:30.883Z,18.40
2024-01-17T20:16:33.617Z,23.40
2024-01-17T20:18:35.490Z,17.10
2024-01-17T20:20:37.328Z,17.90
2024-01-17T20:22:38.859Z,20.00
2024-01-17T20:24:40.476Z,25.40
2024-01-17T20:26:42.288Z,20.40
2024-01-17T20:28:43.840Z,26.10
2024-01-17T20:30:48.208Z,26.00
2024-01-17T20:32:50.943Z,23.20
2024-01-17T20:34:52.798Z,26.10
2024-01-17T20:36:57.617Z,19.70
2024-01-17T20:38:59.303Z,22.40
2024-01-17T20:41:00.920Z,19.70
2024-01-17T20:43:04.683Z,19.60
2024-01-17T20:45:09.457Z,23.00
2024-01-17T20:47:11.288Z,18.70
2024-01-17T20:49:13.015Z,20.30
2024-01-17T20:51:25.619Z,16.90
2024-01-17T20:53:27.479Z,19.00
2024-01-17T20:55:29.013Z,19.00
2024-01-17T20:57:32.588Z,18.70
2024-01-17T20:59:35.390Z,17.50
2024-01-17T21:01:38.731Z,17.20
2024-01-17T21:03:40.523Z,14.70
2024-01-17T21:05:43.556Z,19.10
2024-01-17T21:07:45.422Z,24.10
2024-01-17T21:09:47.199Z,21.90
2024-01-17T21:11:49.025Z,19.40
2024-01-17T21:13:50.915Z,17.00
2024-01-17T21:15:52.695Z,15.00
2024-01-17T21:17:54.397Z,18.40
2024-01-17T21:19:56.688Z,18.10
2024-01-17T21:21:58.445Z,15.50
2024-01-17T21:24:00.293Z,15.00
2024-01-17T21:26:02.316Z,14.70
2024-01-17T21:28:06.381Z,17.40
2024-01-17T21:30:08.771Z,18.70
2024-01-17T21:32:10.312Z,17.80
2024-01-17T21:34:12.198Z,20.50
2024-01-17T21:36:24.282Z,20.30
2024-01-17T21:38:25.948Z,16.10
2024-01-17T21:40:27.549Z,15.60
2024-01-17T21:42:29.263Z,20.50
2024-01-17T21:44:32.391Z,20.20
2024-01-17T21:46:37.424Z,18.30
2024-01-17T21:48:41.489Z,18.40
2024-01-17T21:50:43.099Z,22.50
2024-01-17T21:52:44.618Z,17.00
2024-01-17T21:54:46.184Z,20.40
2024-01-17T21:56:47.989Z,16.80
2024-01-17T21:58:49.570Z,19.10
2024-01-17T22:00:51.205Z,18.50
2024-01-17T22:02:53.067Z,18.00
2024-01-17T22:04:54.716Z,19.60
2024-01-17T22:06:57.219Z,23.50
2024-01-17T22:08:59.862Z,18.20
2024-01-17T22:11:01.659Z,18.10
2024-01-17T22:13:03.730Z,16.10
2024-01-17T22:15:05.900Z,19.00
2024-01-17T22:17:07.558Z,16.70
2024-01-17T22:19:09.368Z,14.50
2024-01-17T22:21:11.184Z,17.00
2024-01-17T22:23:13.104Z,17.20
2024-01-17T22:25:14.734Z,20.70
2024-01-17T22:27:16.377Z,20.10
2024-01-17T22:29:18.073Z,21.50
2024-01-17T22:31:25.242Z,21.90
2024-01-17T22:33:27.049Z,23.40
2024-01-17T22:35:28.855Z,20.30
2024-01-17T22:37:30.511Z,16.30
2024-01-17T22:39:32.243Z,22.00
2024-01-17T22:41:34.022Z,24.60
2024-01-17T22:43:35.626Z,23.90
2024-01-17T22:45:37.237Z,23.80
2024-01-17T22:47:39.085Z,25.50
2024-01-17T22:49:40.776Z,23.10
2024-01-17T22:51:42.630Z,23.80
2024-01-17T22:53:44.349Z,21.80
2024-01-17T22:55:46.023Z,17.60
2024-01-17T22:57:48.658Z,20.50
2024-01-17T22:59:50.258Z,17.10
2024-01-17T23:01:52.195Z,19.40
2024-01-17T23:03:54.079Z,20.20
2024-01-17T23:05:55.780Z,22.90
2024-01-17T23:08:05.190Z,19.80
2024-01-17T23:10:12.937Z,21.30
2024-01-17T23:12:14.623Z,22.80
2024-01-17T23:14:17.379Z,23.40
2024-01-17T23:16:19.219Z,23.90
2024-01-17T23:18:21.050Z,23.60
2024-01-17T23:20:22.984Z,21.20
2024-01-17T23:22:24.818Z,25.40
2024-01-17T23:24:26.724Z,22.50
2024-01-17T23:26:28.533Z,20.50
2024-01-17T23:28:30.267Z,21.90
2024-01-17T23:30:32.007Z,21.60
2024-01-17T23:32:34.026Z,22.40
2024-01-17T23:34:35.852Z,21.80
2024-01-17T23:36:37.825Z,22.00
2024-01-17T23:38:43.418Z,23.20
2024-01-17T23:40:45.132Z,21.70
2024-01-17T23:42:46.976Z,23.50
2024-01-17T23:44:48.955Z,21.50
2024-01-17T23:46:50.690Z,20.50
2024-01-17T23:48:52.634Z,21.60
2024-01-17T23:50:54.788Z,19.50
2024-01-17T23:52:56.843Z,21.40
2024-01-17T23:54:58.667Z,23.50
2024-01-17T23:57:01.034Z,23.40
2024-01-17T23:59:02.845Z,22.60
